Pelly Crossing, Canada
Current Conditions -  °F | °C
As of 5:00 AM on Saturday 25 Oct 2014 (Local Time) from CYMA Reporting Station
Overcast Overcast  
Wind Chill: 27°   Ceiling: 2200
Heat Index: 27°   Visibility: 10mi
Dew Point: 21°   Wind: 0mph
Humidity: 80%   Direction: NA
Pressure: 29.89"   Gusts: NA
Location:  62.83°N, 136.58°W
Report Text: CYMA 251200Z 00000KT 10SM OVC022 M03/M06 A2989 RMK SC8 CLIMAT-2.0/-2.5/0.0 SLP154
Loading
Personal Weather Stations






























Interactive Weather Map
Tropical Storm Tracking
New forecast layout! Learn more

10-Day Weather Forecast

Advertisements
Track Severe Weather on mobile